sensor_id;sensor_type;location;lat;lon;timestamp;P1;durP1;ratioP1;P2;durP2;ratioP2
46745;SDS011;32493;50.514;9.678;2023-08-17T04:32:13;38.58;;;10.30;;
46745;SDS011;32493;50.514;9.678;2023-08-17T04:34:20;35.78;;;10.32;;
46745;SDS011;32493;50.514;9.678;2023-08-17T04:36:26;67.60;;;12.82;;
46745;SDS011;32493;50.514;9.678;2023-08-17T04:38:32;57.58;;;9.48;;
46745;SDS011;32493;50.514;9.678;2023-08-17T04:40:38;91.30;;;11.23;;
46745;SDS011;32493;50.514;9.678;2023-08-17T04:42:43;34.88;;;9.45;;
46745;SDS011;32493;50.514;9.678;2023-08-17T04:44:49;142.90;;;16.00;;
46745;SDS011;32493;50.514;9.678;2023-08-17T04:46:52;130.05;;;14.35;;
46745;SDS011;32493;50.514;9.678;2023-08-17T04:49:00;104.78;;;13.32;;
46745;SDS011;32493;50.514;9.678;2023-08-17T04:51:06;253.88;;;16.10;;
46745;SDS011;32493;50.514;9.678;2023-08-17T04:53:11;84.55;;;12.40;;
46745;SDS011;32493;50.514;9.678;2023-08-17T04:55:16;129.95;;;11.90;;
46745;SDS011;32493;50.514;9.678;2023-08-17T04:57:23;248.80;;;14.85;;
46745;SDS011;32493;50.514;9.678;2023-08-17T04:59:26;42.67;;;8.30;;
46745;SDS011;32493;50.514;9.678;2023-08-17T05:01:32;182.27;;;14.88;;
46745;SDS011;32493;50.514;9.678;2023-08-17T05:03:42;99.22;;;11.23;;
46745;SDS011;32493;50.514;9.678;2023-08-17T05:05:51;93.43;;;11.23;;
46745;SDS011;32493;50.514;9.678;2023-08-17T05:07:57;84.50;;;11.25;;
46745;SDS011;32493;50.514;9.678;2023-08-17T05:10:03;90.50;;;11.18;;
46745;SDS011;32493;50.514;9.678;2023-08-17T05:12:12;57.13;;;11.07;;
46745;SDS011;32493;50.514;9.678;2023-08-17T05:14:18;107.57;;;11.88;;
46745;SDS011;32493;50.514;9.678;2023-08-17T05:16:23;140.25;;;14.27;;
46745;SDS011;32493;50.514;9.678;2023-08-17T05:18:30;97.07;;;11.30;;
46745;SDS011;32493;50.514;9.678;2023-08-17T05:20:36;195.32;;;17.40;;
46745;SDS011;32493;50.514;9.678;2023-08-17T05:22:44;156.25;;;15.02;;
46745;SDS011;32493;50.514;9.678;2023-08-17T05:24:49;153.98;;;14.60;;
46745;SDS011;32493;50.514;9.678;2023-08-17T05:26:56;128.45;;;13.23;;
46745;SDS011;32493;50.514;9.678;2023-08-17T05:28:59;72.93;;;10.30;;
46745;SDS011;32493;50.514;9.678;2023-08-17T05:31:05;92.93;;;11.65;;
46745;SDS011;32493;50.514;9.678;2023-08-17T05:33:15;156.82;;;20.77;;
46745;SDS011;32493;50.514;9.678;2023-08-17T05:35:21;128.60;;;20.52;;
46745;SDS011;32493;50.514;9.678;2023-08-17T05:37:26;106.05;;;14.15;;
46745;SDS011;32493;50.514;9.678;2023-08-17T05:39:34;97.78;;;14.88;;
46745;SDS011;32493;50.514;9.678;2023-08-17T05:41:41;59.00;;;11.73;;
46745;SDS011;32493;50.514;9.678;2023-08-17T05:43:47;40.58;;;10.18;;
46745;SDS011;32493;50.514;9.678;2023-08-17T05:45:53;32.08;;;9.10;;
46745;SDS011;32493;50.514;9.678;2023-08-17T05:48:01;42.80;;;8.73;;
46745;SDS011;32493;50.514;9.678;2023-08-17T05:50:08;28.23;;;10.20;;
46745;SDS011;32493;50.514;9.678;2023-08-17T05:52:14;52.20;;;10.63;;
46745;SDS011;32493;50.514;9.678;2023-08-17T05:54:19;53.20;;;10.65;;
46745;SDS011;32493;50.514;9.678;2023-08-17T05:56:27;20.45;;;8.15;;
46745;SDS011;32493;50.514;9.678;2023-08-17T05:58:33;19.25;;;7.57;;
46745;SDS011;32493;50.514;9.678;2023-08-17T06:00:39;13.48;;;6.72;;
46745;SDS011;32493;50.514;9.678;2023-08-17T06:02:44;20.67;;;7.65;;
46745;SDS011;32493;50.514;9.678;2023-08-17T06:04:53;15.18;;;7.57;;
46745;SDS011;32493;50.514;9.678;2023-08-17T06:06:58;12.85;;;7.38;;
46745;SDS011;32493;50.514;9.678;2023-08-17T06:09:04;11.70;;;6.80;;
46745;SDS011;32493;50.514;9.678;2023-08-17T06:11:11;16.85;;;7.13;;
46745;SDS011;32493;50.514;9.678;2023-08-17T06:13:19;21.35;;;7.63;;
46745;SDS011;32493;50.514;9.678;2023-08-17T06:15:24;15.52;;;8.13;;
46745;SDS011;32493;50.514;9.678;2023-08-17T06:17:30;15.18;;;8.98;;
46745;SDS011;32493;50.514;9.678;2023-08-17T06:19:36;16.05;;;8.90;;
46745;SDS011;32493;50.514;9.678;2023-08-17T06:21:42;19.52;;;9.98;;
46745;SDS011;32493;50.514;9.678;2023-08-17T06:23:47;19.50;;;10.27;;
46745;SDS011;32493;50.514;9.678;2023-08-17T06:25:55;24.42;;;10.68;;
46745;SDS011;32493;50.514;9.678;2023-08-17T06:28:02;27.80;;;10.98;;
46745;SDS011;32493;50.514;9.678;2023-08-17T06:30:13;27.85;;;11.98;;
46745;SDS011;32493;50.514;9.678;2023-08-17T06:32:19;24.38;;;10.73;;
46745;SDS011;32493;50.514;9.678;2023-08-17T06:34:25;20.90;;;10.60;;
46745;SDS011;32493;50.514;9.678;2023-08-17T06:36:30;27.92;;;11.90;;
46745;SDS011;32493;50.514;9.678;2023-08-17T06:38:37;29.13;;;11.65;;
46745;SDS011;32493;50.514;9.678;2023-08-17T06:40:42;28.65;;;12.60;;
46745;SDS011;32493;50.514;9.678;2023-08-17T06:42:49;26.60;;;11.82;;
46745;SDS011;32493;50.514;9.678;2023-08-17T06:44:56;32.55;;;10.55;;
46745;SDS011;32493;50.514;9.678;2023-08-17T06:47:04;20.40;;;9.80;;
46745;SDS011;32493;50.514;9.678;2023-08-17T06:49:10;18.08;;;9.45;;
46745;SDS011;32493;50.514;9.678;2023-08-17T06:51:16;19.00;;;8.63;;
46745;SDS011;32493;50.514;9.678;2023-08-17T06:53:21;22.50;;;8.65;;
46745;SDS011;32493;50.514;9.678;2023-08-17T06:55:27;20.42;;;6.97;;
46745;SDS011;32493;50.514;9.678;2023-08-17T06:57:33;15.35;;;7.13;;
46745;SDS011;32493;50.514;9.678;2023-08-17T06:59:38;14.27;;;7.72;;
46745;SDS011;32493;50.514;9.678;2023-08-17T07:01:47;14.35;;;7.72;;
46745;SDS011;32493;50.514;9.678;2023-08-17T07:03:55;11.73;;;6.30;;
46745;SDS011;32493;50.514;9.678;2023-08-17T07:06:01;9.63;;;6.00;;
46745;SDS011;32493;50.514;9.678;2023-08-17T07:08:07;8.00;;;5.03;;
46745;SDS011;32493;50.514;9.678;2023-08-17T07:10:12;7.22;;;5.47;;
46745;SDS011;32493;50.514;9.678;2023-08-17T07:12:18;9.57;;;5.30;;
46745;SDS011;32493;50.514;9.678;2023-08-17T07:14:25;12.93;;;6.63;;
46745;SDS011;32493;50.514;9.678;2023-08-17T07:16:30;8.02;;;5.78;;
46745;SDS011;32493;50.514;9.678;2023-08-17T07:18:37;11.65;;;5.15;;
46745;SDS011;32493;50.514;9.678;2023-08-17T07:20:45;8.93;;;5.50;;
46745;SDS011;32493;50.514;9.678;2023-08-17T07:22:51;5.38;;;4.88;;
46745;SDS011;32493;50.514;9.678;2023-08-17T07:24:56;6.25;;;5.25;;
46745;SDS011;32493;50.514;9.678;2023-08-17T07:27:02;6.63;;;5.38;;
46745;SDS011;32493;50.514;9.678;2023-08-17T07:29:08;8.63;;;5.47;;
46745;SDS011;32493;50.514;9.678;2023-08-17T07:31:14;5.88;;;5.28;;
46745;SDS011;32493;50.514;9.678;2023-08-17T07:33:20;6.95;;;5.10;;
46745;SDS011;32493;50.514;9.678;2023-08-17T07:35:25;5.20;;;4.68;;
46745;SDS011;32493;50.514;9.678;2023-08-17T07:37:34;4.93;;;4.50;;
46745;SDS011;32493;50.514;9.678;2023-08-17T07:39:40;5.53;;;5.00;;
46745;SDS011;32493;50.514;9.678;2023-08-17T07:41:45;5.18;;;4.68;;
46745;SDS011;32493;50.514;9.678;2023-08-17T07:43:51;5.90;;;4.78;;
46745;SDS011;32493;50.514;9.678;2023-08-17T07:45:57;4.95;;;4.55;;
46745;SDS011;32493;50.514;9.678;2023-08-17T07:48:03;6.20;;;4.75;;
46745;SDS011;32493;50.514;9.678;2023-08-17T07:50:09;5.43;;;4.35;;
46745;SDS011;32493;50.514;9.678;2023-08-17T07:52:15;6.15;;;4.15;;
46745;SDS011;32493;50.514;9.678;2023-08-17T07:54:23;4.30;;;3.90;;
46745;SDS011;32493;50.514;9.678;2023-08-17T07:56:29;4.50;;;4.10;;
46745;SDS011;32493;50.514;9.678;2023-08-17T07:58:35;4.82;;;4.38;;
46745;SDS011;32493;50.514;9.678;2023-08-17T08:00:40;5.63;;;3.72;;
46745;SDS011;32493;50.514;9.678;2023-08-17T08:02:46;4.60;;;4.20;;
46745;SDS011;32493;50.514;9.678;2023-08-17T08:04:52;5.88;;;4.03;;
46745;SDS011;32493;50.514;9.678;2023-08-17T08:06:58;4.50;;;3.40;;
46745;SDS011;32493;50.514;9.678;2023-08-17T08:09:04;2.95;;;2.65;;
46745;SDS011;32493;50.514;9.678;2023-08-17T08:11:12;3.38;;;3.08;;
46745;SDS011;32493;50.514;9.678;2023-08-17T08:13:18;3.72;;;3.42;;
46745;SDS011;32493;50.514;9.678;2023-08-17T08:15:24;5.18;;;3.28;;
46745;SDS011;32493;50.514;9.678;2023-08-17T08:17:29;3.47;;;3.17;;
46745;SDS011;32493;50.514;9.678;2023-08-17T08:19:35;4.80;;;3.47;;
46745;SDS011;32493;50.514;9.678;2023-08-17T08:21:40;3.85;;;3.30;;
46745;SDS011;32493;50.514;9.678;2023-08-17T08:23:46;3.35;;;3.05;;
46745;SDS011;32493;50.514;9.678;2023-08-17T08:25:51;5.75;;;4.07;;
46745;SDS011;32493;50.514;9.678;2023-08-17T08:28:00;3.75;;;3.42;;
46745;SDS011;32493;50.514;9.678;2023-08-17T08:30:06;3.60;;;3.30;;
46745;SDS011;32493;50.514;9.678;2023-08-17T08:32:12;5.32;;;3.80;;
46745;SDS011;32493;50.514;9.678;2023-08-17T08:34:15;4.10;;;3.70;;
46745;SDS011;32493;50.514;9.678;2023-08-17T08:36:21;7.10;;;6.10;;
46745;SDS011;32493;50.514;9.678;2023-08-17T08:38:27;3.92;;;3.38;;
46745;SDS011;32493;50.514;9.678;2023-08-17T08:40:32;3.90;;;3.50;;
46745;SDS011;32493;50.514;9.678;2023-08-17T08:42:39;5.97;;;3.70;;
46745;SDS011;32493;50.514;9.678;2023-08-17T08:44:47;3.78;;;3.30;;
46745;SDS011;32493;50.514;9.678;2023-08-17T08:46:54;3.80;;;3.45;;
46745;SDS011;32493;50.514;9.678;2023-08-17T08:49:01;4.57;;;4.18;;
46745;SDS011;32493;50.514;9.678;2023-08-17T08:51:10;3.72;;;3.20;;
46745;SDS011;32493;50.514;9.678;2023-08-17T08:53:28;4.97;;;3.75;;
46745;SDS011;32493;50.514;9.678;2023-08-17T08:55:37;3.55;;;3.25;;
46745;SDS011;32493;50.514;9.678;2023-08-17T08:57:49;3.88;;;2.70;;
46745;SDS011;32493;50.514;9.678;2023-08-17T08:59:56;3.00;;;2.70;;
46745;SDS011;32493;50.514;9.678;2023-08-17T09:02:03;3.40;;;3.10;;
46745;SDS011;32493;50.514;9.678;2023-08-17T09:04:14;6.30;;;4.22;;
46745;SDS011;32493;50.514;9.678;2023-08-17T09:06:17;6.28;;;3.42;;
46745;SDS011;32493;50.514;9.678;2023-08-17T09:08:25;5.80;;;3.53;;
46745;SDS011;32493;50.514;9.678;2023-08-17T09:10:34;3.70;;;3.03;;
46745;SDS011;32493;50.514;9.678;2023-08-17T09:12:40;3.50;;;3.20;;
46745;SDS011;32493;50.514;9.678;2023-08-17T09:14:50;3.15;;;2.83;;
46745;SDS011;32493;50.514;9.678;2023-08-17T09:17:00;3.33;;;3.03;;
46745;SDS011;32493;50.514;9.678;2023-08-17T09:19:06;3.75;;;3.20;;
46745;SDS011;32493;50.514;9.678;2023-08-17T09:21:19;3.10;;;2.90;;
46745;SDS011;32493;50.514;9.678;2023-08-17T09:23:26;3.97;;;3.20;;
46745;SDS011;32493;50.514;9.678;2023-08-17T09:25:35;3.08;;;2.78;;
46745;SDS011;32493;50.514;9.678;2023-08-17T09:27:43;4.13;;;2.53;;
46745;SDS011;32493;50.514;9.678;2023-08-17T09:29:49;3.75;;;2.85;;
46745;SDS011;32493;50.514;9.678;2023-08-17T09:31:55;4.90;;;2.63;;
46745;SDS011;32493;50.514;9.678;2023-08-17T09:34:03;3.08;;;2.60;;
46745;SDS011;32493;50.514;9.678;2023-08-17T09:36:11;2.67;;;2.47;;
46745;SDS011;32493;50.514;9.678;2023-08-17T09:38:17;2.53;;;2.33;;
46745;SDS011;32493;50.514;9.678;2023-08-17T09:40:25;2.60;;;2.40;;
46745;SDS011;32493;50.514;9.678;2023-08-17T09:42:34;3.13;;;2.83;;
46745;SDS011;32493;50.514;9.678;2023-08-17T09:44:40;4.25;;;2.80;;
46745;SDS011;32493;50.514;9.678;2023-08-17T09:46:46;3.63;;;3.33;;
46745;SDS011;32493;50.514;9.678;2023-08-17T09:48:52;3.35;;;3.05;;
46745;SDS011;32493;50.514;9.678;2023-08-17T09:51:01;4.25;;;3.80;;
46745;SDS011;32493;50.514;9.678;2023-08-17T09:53:07;4.45;;;3.30;;
46745;SDS011;32493;50.514;9.678;2023-08-17T09:55:16;4.05;;;3.15;;
46745;SDS011;32493;50.514;9.678;2023-08-17T09:57:23;2.80;;;2.60;;
46745;SDS011;32493;50.514;9.678;2023-08-17T09:59:29;3.03;;;2.73;;
46745;SDS011;32493;50.514;9.678;2023-08-17T10:01:40;3.55;;;2.90;;
46745;SDS011;32493;50.514;9.678;2023-08-17T10:03:46;3.53;;;3.22;;
46745;SDS011;32493;50.514;9.678;2023-08-17T10:05:54;3.00;;;2.70;;
46745;SDS011;32493;50.514;9.678;2023-08-17T10:08:06;3.25;;;2.58;;
46745;SDS011;32493;50.514;9.678;2023-08-17T10:10:14;4.05;;;2.47;;
46745;SDS011;32493;50.514;9.678;2023-08-17T10:12:26;2.60;;;2.30;;
46745;SDS011;32493;50.514;9.678;2023-08-17T10:14:50;3.90;;;2.60;;
46745;SDS011;32493;50.514;9.678;2023-08-17T10:17:01;3.40;;;3.10;;
46745;SDS011;32493;50.514;9.678;2023-08-17T10:19:13;3.90;;;3.05;;
46745;SDS011;32493;50.514;9.678;2023-08-17T10:21:27;4.13;;;3.20;;
46745;SDS011;32493;50.514;9.678;2023-08-17T10:23:38;4.03;;;3.63;;
46745;SDS011;32493;50.514;9.678;2023-08-17T10:25:44;6.65;;;3.58;;
46745;SDS011;32493;50.514;9.678;2023-08-17T10:27:52;4.03;;;3.55;;
46745;SDS011;32493;50.514;9.678;2023-08-17T10:30:01;3.30;;;3.00;;
46745;SDS011;32493;50.514;9.678;2023-08-17T10:32:10;3.60;;;2.60;;
46745;SDS011;32493;50.514;9.678;2023-08-17T10:34:17;3.50;;;3.20;;
46745;SDS011;32493;50.514;9.678;2023-08-17T10:36:23;3.17;;;2.88;;
46745;SDS011;32493;50.514;9.678;2023-08-17T10:38:30;2.90;;;2.70;;
46745;SDS011;32493;50.514;9.678;2023-08-17T10:40:39;3.78;;;3.22;;
46745;SDS011;32493;50.514;9.678;2023-08-17T10:42:47;3.58;;;3.28;;
46745;SDS011;32493;50.514;9.678;2023-08-17T10:44:59;3.60;;;3.17;;
46745;SDS011;32493;50.514;9.678;2023-08-17T10:49:25;5.13;;;3.47;;
46745;SDS011;32493;50.514;9.678;2023-08-17T10:51:31;4.13;;;3.22;;
46745;SDS011;32493;50.514;9.678;2023-08-17T10:53:37;4.18;;;3.38;;
46745;SDS011;32493;50.514;9.678;2023-08-17T10:55:47;6.95;;;4.07;;
46745;SDS011;32493;50.514;9.678;2023-08-17T10:57:54;4.15;;;3.20;;
46745;SDS011;32493;50.514;9.678;2023-08-17T11:02:31;4.72;;;3.53;;
46745;SDS011;32493;50.514;9.678;2023-08-17T11:04:37;4.45;;;3.65;;
46745;SDS011;32493;50.514;9.678;2023-08-17T11:06:44;5.10;;;3.63;;
46745;SDS011;32493;50.514;9.678;2023-08-17T11:08:51;3.78;;;3.47;;
46745;SDS011;32493;50.514;9.678;2023-08-17T11:11:01;4.47;;;3.75;;
46745;SDS011;32493;50.514;9.678;2023-08-17T11:13:08;4.57;;;4.18;;
46745;SDS011;32493;50.514;9.678;2023-08-17T11:15:13;4.50;;;4.10;;
46745;SDS011;32493;50.514;9.678;2023-08-17T11:17:17;6.88;;;4.43;;
46745;SDS011;32493;50.514;9.678;2023-08-17T11:19:25;5.47;;;4.97;;
46745;SDS011;32493;50.514;9.678;2023-08-17T11:21:31;5.32;;;4.32;;
46745;SDS011;32493;50.514;9.678;2023-08-17T11:23:34;4.78;;;4.38;;
46745;SDS011;32493;50.514;9.678;2023-08-17T11:27:49;4.55;;;4.15;;
46745;SDS011;32493;50.514;9.678;2023-08-17T11:29:56;6.15;;;4.72;;
46745;SDS011;32493;50.514;9.678;2023-08-17T11:32:05;6.32;;;5.00;;
46745;SDS011;32493;50.514;9.678;2023-08-17T11:34:13;5.80;;;5.25;;
46745;SDS011;32493;50.514;9.678;2023-08-17T11:36:19;5.05;;;4.38;;
46745;SDS011;32493;50.514;9.678;2023-08-17T11:38:29;5.13;;;4.63;;
46745;SDS011;32493;50.514;9.678;2023-08-17T11:40:33;5.97;;;4.28;;
46745;SDS011;32493;50.514;9.678;2023-08-17T11:42:39;4.47;;;3.97;;
46745;SDS011;32493;50.514;9.678;2023-08-17T11:44:48;6.35;;;5.25;;
46745;SDS011;32493;50.514;9.678;2023-08-17T11:46:54;5.93;;;5.07;;
46745;SDS011;32493;50.514;9.678;2023-08-17T11:49:00;5.72;;;5.00;;
46745;SDS011;32493;50.514;9.678;2023-08-17T11:51:06;7.05;;;4.50;;
46745;SDS011;32493;50.514;9.678;2023-08-17T11:53:13;5.72;;;4.00;;
46745;SDS011;32493;50.514;9.678;2023-08-17T11:55:19;5.38;;;4.68;;
46745;SDS011;32493;50.514;9.678;2023-08-17T11:57:25;5.20;;;4.10;;
46745;SDS011;32493;50.514;9.678;2023-08-17T11:59:28;5.57;;;4.55;;
46745;SDS011;32493;50.514;9.678;2023-08-17T12:01:37;15.90;;;9.10;;
46745;SDS011;32493;50.514;9.678;2023-08-17T12:03:44;5.40;;;4.90;;
46745;SDS011;32493;50.514;9.678;2023-08-17T12:05:50;6.05;;;5.32;;
46745;SDS011;32493;50.514;9.678;2023-08-17T12:07:55;5.78;;;4.63;;
46745;SDS011;32493;50.514;9.678;2023-08-17T12:10:02;5.55;;;5.03;;
46745;SDS011;32493;50.514;9.678;2023-08-17T12:12:09;5.50;;;5.00;;
46745;SDS011;32493;50.514;9.678;2023-08-17T12:14:15;5.72;;;4.32;;
46745;SDS011;32493;50.514;9.678;2023-08-17T12:16:20;5.13;;;4.63;;
46745;SDS011;32493;50.514;9.678;2023-08-17T12:18:30;9.65;;;4.90;;
46745;SDS011;32493;50.514;9.678;2023-08-17T12:20:37;6.70;;;5.05;;
46745;SDS011;32493;50.514;9.678;2023-08-17T12:22:47;5.13;;;4.50;;
46745;SDS011;32493;50.514;9.678;2023-08-17T12:24:52;5.32;;;4.82;;
46745;SDS011;32493;50.514;9.678;2023-08-17T12:26:58;11.25;;;6.47;;
46745;SDS011;32493;50.514;9.678;2023-08-17T12:29:04;5.80;;;4.95;;
46745;SDS011;32493;50.514;9.678;2023-08-17T12:31:10;6.07;;;4.43;;
46745;SDS011;32493;50.514;9.678;2023-08-17T12:33:15;9.30;;;4.80;;
46745;SDS011;32493;50.514;9.678;2023-08-17T12:35:24;5.15;;;4.65;;
46745;SDS011;32493;50.514;9.678;2023-08-17T12:37:30;6.32;;;5.00;;
46745;SDS011;32493;50.514;9.678;2023-08-17T12:39:35;5.53;;;4.60;;
46745;SDS011;32493;50.514;9.678;2023-08-17T12:41:41;5.50;;;4.90;;
46745;SDS011;32493;50.514;9.678;2023-08-17T12:43:46;7.20;;;5.10;;
46745;SDS011;32493;50.514;9.678;2023-08-17T12:45:52;7.35;;;4.68;;
46745;SDS011;32493;50.514;9.678;2023-08-17T12:47:57;7.10;;;4.60;;
46745;SDS011;32493;50.514;9.678;2023-08-17T12:50:04;5.97;;;4.55;;
46745;SDS011;32493;50.514;9.678;2023-08-17T12:52:13;4.78;;;4.25;;
46745;SDS011;32493;50.514;9.678;2023-08-17T12:54:18;5.75;;;4.25;;
46745;SDS011;32493;50.514;9.678;2023-08-17T12:56:24;5.20;;;3.92;;
46745;SDS011;32493;50.514;9.678;2023-08-17T12:58:30;10.88;;;5.13;;
46745;SDS011;32493;50.514;9.678;2023-08-17T13:00:35;5.10;;;4.60;;
46745;SDS011;32493;50.514;9.678;2023-08-17T13:02:41;5.50;;;4.65;;
46745;SDS011;32493;50.514;9.678;2023-08-17T13:04:48;4.80;;;4.40;;
46745;SDS011;32493;50.514;9.678;2023-08-17T13:06:54;5.95;;;5.40;;
46745;SDS011;32493;50.514;9.678;2023-08-17T13:09:02;7.43;;;4.75;;
46745;SDS011;32493;50.514;9.678;2023-08-17T13:11:10;7.03;;;4.53;;
46745;SDS011;32493;50.514;9.678;2023-08-17T13:13:16;6.45;;;4.75;;
46745;SDS011;32493;50.514;9.678;2023-08-17T13:15:20;5.10;;;4.60;;
46745;SDS011;32493;50.514;9.678;2023-08-17T13:17:25;4.80;;;4.35;;
46745;SDS011;32493;50.514;9.678;2023-08-17T13:19:31;6.03;;;4.15;;
46745;SDS011;32493;50.514;9.678;2023-08-17T13:21:36;5.20;;;4.45;;
46745;SDS011;32493;50.514;9.678;2023-08-17T13:23:42;4.43;;;4.13;;
46745;SDS011;32493;50.514;9.678;2023-08-17T13:25:50;8.05;;;4.80;;
46745;SDS011;32493;50.514;9.678;2023-08-17T13:27:56;13.63;;;8.52;;
46745;SDS011;32493;50.514;9.678;2023-08-17T13:30:02;6.40;;;4.55;;
46745;SDS011;32493;50.514;9.678;2023-08-17T13:32:08;5.03;;;4.55;;
46745;SDS011;32493;50.514;9.678;2023-08-17T13:34:13;4.72;;;4.32;;
46745;SDS011;32493;50.514;9.678;2023-08-17T13:36:17;4.38;;;3.90;;
46745;SDS011;32493;50.514;9.678;2023-08-17T13:38:23;4.35;;;3.92;;
46745;SDS011;32493;50.514;9.678;2023-08-17T13:40:28;4.70;;;4.28;;
46745;SDS011;32493;50.514;9.678;2023-08-17T13:42:38;5.90;;;4.10;;
46745;SDS011;32493;50.514;9.678;2023-08-17T13:44:43;4.72;;;4.32;;
46745;SDS011;32493;50.514;9.678;2023-08-17T13:46:49;4.60;;;3.88;;
46745;SDS011;32493;50.514;9.678;2023-08-17T13:48:55;4.20;;;3.83;;
46745;SDS011;32493;50.514;9.678;2023-08-17T13:51:00;5.32;;;4.00;;
46745;SDS011;32493;50.514;9.678;2023-08-17T13:53:06;5.07;;;3.80;;
46745;SDS011;32493;50.514;9.678;2023-08-17T13:55:12;5.95;;;3.70;;
46745;SDS011;32493;50.514;9.678;2023-08-17T13:57:17;4.13;;;3.35;;
46745;SDS011;32493;50.514;9.678;2023-08-17T13:59:25;6.50;;;3.47;;
46745;SDS011;32493;50.514;9.678;2023-08-17T14:01:31;4.38;;;3.70;;
46745;SDS011;32493;50.514;9.678;2023-08-17T14:03:37;4.82;;;3.67;;
46745;SDS011;32493;50.514;9.678;2023-08-17T14:05:44;4.57;;;3.40;;
46745;SDS011;32493;50.514;9.678;2023-08-17T14:07:47;5.88;;;3.67;;
46745;SDS011;32493;50.514;9.678;2023-08-17T14:09:52;3.92;;;3.47;;
46745;SDS011;32493;50.514;9.678;2023-08-17T14:12:09;3.75;;;3.33;;
46745;SDS011;32493;50.514;9.678;2023-08-17T14:14:15;4.32;;;3.28;;
46745;SDS011;32493;50.514;9.678;2023-08-17T14:16:23;4.07;;;3.63;;
46745;SDS011;32493;50.514;9.678;2023-08-17T14:18:29;4.18;;;3.30;;
46745;SDS011;32493;50.514;9.678;2023-08-17T14:20:35;3.47;;;3.17;;
46745;SDS011;32493;50.514;9.678;2023-08-17T14:22:40;3.85;;;3.20;;
46745;SDS011;32493;50.514;9.678;2023-08-17T14:24:46;3.67;;;3.37;;
46745;SDS011;32493;50.514;9.678;2023-08-17T14:26:52;4.68;;;3.60;;
46745;SDS011;32493;50.514;9.678;2023-08-17T14:28:59;6.25;;;3.28;;
46745;SDS011;32493;50.514;9.678;2023-08-17T14:31:04;6.40;;;2.92;;
46745;SDS011;32493;50.514;9.678;2023-08-17T14:33:12;3.28;;;2.97;;
46745;SDS011;32493;50.514;9.678;2023-08-17T14:35:18;4.78;;;3.15;;
46745;SDS011;32493;50.514;9.678;2023-08-17T14:37:23;3.13;;;2.83;;
46745;SDS011;32493;50.514;9.678;2023-08-17T14:39:29;4.93;;;2.87;;
46745;SDS011;32493;50.514;9.678;2023-08-17T14:41:38;2.80;;;2.60;;
46745;SDS011;32493;50.514;9.678;2023-08-17T14:43:47;3.83;;;2.90;;
46745;SDS011;32493;50.514;9.678;2023-08-17T14:45:52;3.00;;;2.70;;
46745;SDS011;32493;50.514;9.678;2023-08-17T14:47:58;2.92;;;2.63;;
46745;SDS011;32493;50.514;9.678;2023-08-17T14:50:08;3.42;;;2.80;;
46745;SDS011;32493;50.514;9.678;2023-08-17T14:52:15;3.40;;;2.75;;
46745;SDS011;32493;50.514;9.678;2023-08-17T14:54:21;4.20;;;2.33;;
46745;SDS011;32493;50.514;9.678;2023-08-17T14:56:26;2.92;;;2.60;;
46745;SDS011;32493;50.514;9.678;2023-08-17T14:58:32;3.05;;;2.20;;
46745;SDS011;32493;50.514;9.678;2023-08-17T15:00:38;6.97;;;2.47;;
46745;SDS011;32493;50.514;9.678;2023-08-17T15:02:43;4.90;;;2.53;;
46745;SDS011;32493;50.514;9.678;2023-08-17T15:04:46;1.98;;;1.88;;
46745;SDS011;32493;50.514;9.678;2023-08-17T15:06:54;2.20;;;1.92;;
46745;SDS011;32493;50.514;9.678;2023-08-17T15:09:00;2.63;;;2.13;;
46745;SDS011;32493;50.514;9.678;2023-08-17T15:11:06;5.00;;;2.35;;
46745;SDS011;32493;50.514;9.678;2023-08-17T15:13:11;4.47;;;2.10;;
46745;SDS011;32493;50.514;9.678;2023-08-17T15:15:17;2.28;;;2.08;;
46745;SDS011;32493;50.514;9.678;2023-08-17T15:17:22;2.35;;;2.13;;
46745;SDS011;32493;50.514;9.678;2023-08-17T15:19:29;2.75;;;2.22;;
46745;SDS011;32493;50.514;9.678;2023-08-17T15:21:41;5.13;;;2.58;;
46745;SDS011;32493;50.514;9.678;2023-08-17T15:50:18;4.10;;;2.38;;
46745;SDS011;32493;50.514;9.678;2023-08-17T15:52:24;3.45;;;2.78;;
46745;SDS011;32493;50.514;9.678;2023-08-17T15:54:30;4.90;;;2.60;;
46745;SDS011;32493;50.514;9.678;2023-08-17T15:56:37;2.40;;;2.20;;
46745;SDS011;32493;50.514;9.678;2023-08-17T15:58:43;5.25;;;2.70;;
46745;SDS011;32493;50.514;9.678;2023-08-17T16:00:48;2.67;;;2.47;;
46745;SDS011;32493;50.514;9.678;2023-08-17T16:02:54;4.68;;;2.50;;
46745;SDS011;32493;50.514;9.678;2023-08-17T16:04:59;2.92;;;2.63;;
46745;SDS011;32493;50.514;9.678;2023-08-17T16:07:07;3.63;;;2.50;;
46745;SDS011;32493;50.514;9.678;2023-08-17T16:09:13;2.90;;;2.60;;
46745;SDS011;32493;50.514;9.678;2023-08-17T16:11:18;3.33;;;2.47;;
46745;SDS011;32493;50.514;9.678;2023-08-17T16:13:24;4.05;;;2.63;;
46745;SDS011;32493;50.514;9.678;2023-08-17T16:17:36;2.97;;;2.55;;
46745;SDS011;32493;50.514;9.678;2023-08-17T16:19:42;4.75;;;2.72;;
46745;SDS011;32493;50.514;9.678;2023-08-17T16:21:47;3.75;;;2.20;;
46745;SDS011;32493;50.514;9.678;2023-08-17T16:23:55;3.00;;;2.30;;
46745;SDS011;32493;50.514;9.678;2023-08-17T16:26:01;2.50;;;2.30;;
46745;SDS011;32493;50.514;9.678;2023-08-17T16:28:06;3.28;;;2.10;;
46745;SDS011;32493;50.514;9.678;2023-08-17T16:30:12;5.15;;;2.40;;
46745;SDS011;32493;50.514;9.678;2023-08-17T16:32:17;2.72;;;2.30;;
46745;SDS011;32493;50.514;9.678;2023-08-17T16:34:23;3.05;;;2.15;;
46745;SDS011;32493;50.514;9.678;2023-08-17T16:36:28;2.78;;;2.40;;
46745;SDS011;32493;50.514;9.678;2023-08-17T16:38:37;3.35;;;2.30;;
46745;SDS011;32493;50.514;9.678;2023-08-17T16:40:45;3.70;;;2.38;;
46745;SDS011;32493;50.514;9.678;2023-08-17T16:42:51;4.10;;;2.22;;
46745;SDS011;32493;50.514;9.678;2023-08-17T16:45:01;3.25;;;2.00;;
46745;SDS011;32493;50.514;9.678;2023-08-17T16:47:11;2.97;;;2.45;;
46745;SDS011;32493;50.514;9.678;2023-08-17T16:49:20;4.05;;;2.40;;
46745;SDS011;32493;50.514;9.678;2023-08-17T16:51:28;3.50;;;2.40;;
46745;SDS011;32493;50.514;9.678;2023-08-17T16:53:36;3.90;;;2.55;;
46745;SDS011;32493;50.514;9.678;2023-08-17T16:55:47;2.42;;;2.22;;
46745;SDS011;32493;50.514;9.678;2023-08-17T16:57:56;2.65;;;2.28;;
46745;SDS011;32493;50.514;9.678;2023-08-17T17:00:01;3.40;;;2.60;;
46745;SDS011;32493;50.514;9.678;2023-08-17T17:02:06;3.22;;;2.22;;
46745;SDS011;32493;50.514;9.678;2023-08-17T17:04:14;3.55;;;2.45;;
46745;SDS011;32493;50.514;9.678;2023-08-17T17:06:20;4.03;;;2.58;;
46745;SDS011;32493;50.514;9.678;2023-08-17T17:08:26;2.67;;;2.40;;
46745;SDS011;32493;50.514;9.678;2023-08-17T17:10:32;3.08;;;2.55;;
46745;SDS011;32493;50.514;9.678;2023-08-17T17:12:40;2.78;;;2.35;;
46745;SDS011;32493;50.514;9.678;2023-08-17T17:14:45;4.10;;;2.47;;
46745;SDS011;32493;50.514;9.678;2023-08-17T17:16:51;3.85;;;2.42;;
46745;SDS011;32493;50.514;9.678;2023-08-17T17:18:57;5.93;;;3.10;;
46745;SDS011;32493;50.514;9.678;2023-08-17T17:21:02;5.70;;;3.00;;
46745;SDS011;32493;50.514;9.678;2023-08-17T17:23:10;3.20;;;2.90;;
46745;SDS011;32493;50.514;9.678;2023-08-17T17:25:15;5.75;;;3.00;;
46745;SDS011;32493;50.514;9.678;2023-08-17T17:27:20;3.38;;;3.08;;
46745;SDS011;32493;50.514;9.678;2023-08-17T17:29:26;3.30;;;3.00;;
46745;SDS011;32493;50.514;9.678;2023-08-17T17:31:31;3.20;;;2.80;;
46745;SDS011;32493;50.514;9.678;2023-08-17T17:33:37;3.63;;;3.20;;
46745;SDS011;32493;50.514;9.678;2023-08-17T17:35:40;4.25;;;3.10;;
46745;SDS011;32493;50.514;9.678;2023-08-17T17:37:45;5.38;;;3.38;;
46745;SDS011;32493;50.514;9.678;2023-08-17T17:39:51;4.07;;;2.80;;
46745;SDS011;32493;50.514;9.678;2023-08-17T17:41:57;4.68;;;3.10;;
46745;SDS011;32493;50.514;9.678;2023-08-17T17:44:03;4.43;;;3.05;;
46745;SDS011;32493;50.514;9.678;2023-08-17T17:46:12;6.32;;;3.08;;